Terminal Aerodrome Forecast
Issued by NWS

Home | Current Version | Previous Version | Text Only | Print | Product List | Glossary On
Versions: 1 2 3 4 5 6 7 8 9 10 11 12 13 14 15 16 17 18 19 20 21 22 23 24 25 26 27 28 29 30 31
000
FTUS41 KOKX 221733
TAFGON
TAF
KGON 221733Z 2218/2318 23006KT P6SM BKN070
     FM222300 22004KT P6SM SCT050 BKN250
     FM230500 VRB03KT 5SM BR BKN250
     FM230900 VRB02KT 2SM BR SCT005 BKN250
     FM231200 VRB03KT 1/4SM FG BKN005 BKN250
     FM231500 21008KT P6SM OVC015=

USA.gov is the U.S. government's official web portal to all federal, state and local government web resources and services.